sensor_id;sensor_type;location;lat;lon;timestamp;temperature;humidity
75927;DHT22;64605;48.296;16.416;2023-05-14T00:00:34;14.00;77.70
75927;DHT22;64605;48.296;16.416;2023-05-14T00:03:00;14.00;77.70
75927;DHT22;64605;48.296;16.416;2023-05-14T00:05:26;14.10;77.60
75927;DHT22;64605;48.296;16.416;2023-05-14T00:07:51;14.10;77.00
75927;DHT22;64605;48.296;16.416;2023-05-14T00:10:17;14.20;76.80
75927;DHT22;64605;48.296;16.416;2023-05-14T00:12:44;14.20;76.50
75927;DHT22;64605;48.296;16.416;2023-05-14T00:15:10;14.20;76.50
75927;DHT22;64605;48.296;16.416;2023-05-14T00:17:36;14.30;76.30
75927;DHT22;64605;48.296;16.416;2023-05-14T00:20:03;14.30;76.30
75927;DHT22;64605;48.296;16.416;2023-05-14T00:22:32;14.30;76.30
75927;DHT22;64605;48.296;16.416;2023-05-14T00:24:57;14.20;76.30
75927;DHT22;64605;48.296;16.416;2023-05-14T00:27:23;14.10;76.50
75927;DHT22;64605;48.296;16.416;2023-05-14T00:29:49;14.20;76.80
75927;DHT22;64605;48.296;16.416;2023-05-14T00:32:15;14.20;76.40
75927;DHT22;64605;48.296;16.416;2023-05-14T00:34:40;14.20;76.80
75927;DHT22;64605;48.296;16.416;2023-05-14T00:37:06;14.10;76.20
75927;DHT22;64605;48.296;16.416;2023-05-14T00:39:32;14.10;77.30
75927;DHT22;64605;48.296;16.416;2023-05-14T00:41:58;14.10;76.30
75927;DHT22;64605;48.296;16.416;2023-05-14T00:44:23;14.10;76.60
75927;DHT22;64605;48.296;16.416;2023-05-14T00:46:49;14.00;76.70
75927;DHT22;64605;48.296;16.416;2023-05-14T00:49:15;14.00;76.80
75927;DHT22;64605;48.296;16.416;2023-05-14T00:51:42;14.00;76.80
75927;DHT22;64605;48.296;16.416;2023-05-14T00:54:15;14.00;76.60
75927;DHT22;64605;48.296;16.416;2023-05-14T00:56:42;13.90;76.60
75927;DHT22;64605;48.296;16.416;2023-05-14T00:59:09;13.90;76.80
75927;DHT22;64605;48.296;16.416;2023-05-14T01:01:34;13.80;77.20
75927;DHT22;64605;48.296;16.416;2023-05-14T01:04:01;13.80;77.30
75927;DHT22;64605;48.296;16.416;2023-05-14T01:09:35;13.70;77.60
75927;DHT22;64605;48.296;16.416;2023-05-14T01:12:15;13.70;77.80
75927;DHT22;64605;48.296;16.416;2023-05-14T01:17:17;13.70;77.70
75927;DHT22;64605;48.296;16.416;2023-05-14T01:19:46;13.60;77.70
75927;DHT22;64605;48.296;16.416;2023-05-14T01:22:12;13.60;77.80
75927;DHT22;64605;48.296;16.416;2023-05-14T01:24:38;13.60;77.90
75927;DHT22;64605;48.296;16.416;2023-05-14T01:27:16;13.60;77.80
75927;DHT22;64605;48.296;16.416;2023-05-14T01:29:48;13.50;77.90
75927;DHT22;64605;48.296;16.416;2023-05-14T01:32:17;13.50;77.90
75927;DHT22;64605;48.296;16.416;2023-05-14T01:34:46;13.50;77.80
75927;DHT22;64605;48.296;16.416;2023-05-14T01:37:13;13.40;77.80
75927;DHT22;64605;48.296;16.416;2023-05-14T01:39:40;13.20;78.30
75927;DHT22;64605;48.296;16.416;2023-05-14T01:42:06;13.20;78.10
75927;DHT22;64605;48.296;16.416;2023-05-14T01:44:33;13.10;77.90
75927;DHT22;64605;48.296;16.416;2023-05-14T01:46:59;13.10;77.90
75927;DHT22;64605;48.296;16.416;2023-05-14T01:49:25;13.00;77.70
75927;DHT22;64605;48.296;16.416;2023-05-14T01:51:50;13.00;77.70
75927;DHT22;64605;48.296;16.416;2023-05-14T01:54:16;12.90;77.60
75927;DHT22;64605;48.296;16.416;2023-05-14T01:56:41;12.90;77.70
75927;DHT22;64605;48.296;16.416;2023-05-14T01:59:07;12.90;77.90
75927;DHT22;64605;48.296;16.416;2023-05-14T02:01:33;12.90;78.10
75927;DHT22;64605;48.296;16.416;2023-05-14T02:03:58;12.90;78.50
75927;DHT22;64605;48.296;16.416;2023-05-14T02:06:25;12.90;78.80
75927;DHT22;64605;48.296;16.416;2023-05-14T02:08:51;12.90;78.90
75927;DHT22;64605;48.296;16.416;2023-05-14T02:11:17;13.00;78.80
75927;DHT22;64605;48.296;16.416;2023-05-14T02:13:42;13.00;78.60
75927;DHT22;64605;48.296;16.416;2023-05-14T02:16:08;12.80;78.80
75927;DHT22;64605;48.296;16.416;2023-05-14T02:18:34;12.80;78.60
75927;DHT22;64605;48.296;16.416;2023-05-14T02:20:59;12.80;78.70
75927;DHT22;64605;48.296;16.416;2023-05-14T02:23:25;12.70;78.70
75927;DHT22;64605;48.296;16.416;2023-05-14T02:25:51;12.60;78.80
75927;DHT22;64605;48.296;16.416;2023-05-14T02:28:16;12.60;79.10
75927;DHT22;64605;48.296;16.416;2023-05-14T02:30:42;12.60;79.10
75927;DHT22;64605;48.296;16.416;2023-05-14T02:33:07;12.60;79.20
75927;DHT22;64605;48.296;16.416;2023-05-14T02:35:33;12.60;79.40
75927;DHT22;64605;48.296;16.416;2023-05-14T02:37:59;12.60;79.50
75927;DHT22;64605;48.296;16.416;2023-05-14T02:40:24;12.60;79.90
75927;DHT22;64605;48.296;16.416;2023-05-14T02:42:50;12.60;80.10
75927;DHT22;64605;48.296;16.416;2023-05-14T02:45:16;12.70;80.10
75927;DHT22;64605;48.296;16.416;2023-05-14T02:47:41;12.80;80.40
75927;DHT22;64605;48.296;16.416;2023-05-14T02:50:08;12.90;80.40
75927;DHT22;64605;48.296;16.416;2023-05-14T02:52:33;12.90;80.30
75927;DHT22;64605;48.296;16.416;2023-05-14T02:55:00;13.00;79.60
75927;DHT22;64605;48.296;16.416;2023-05-14T02:57:26;13.10;79.80
75927;DHT22;64605;48.296;16.416;2023-05-14T02:59:51;13.20;79.20
75927;DHT22;64605;48.296;16.416;2023-05-14T03:02:17;13.20;78.90
75927;DHT22;64605;48.296;16.416;2023-05-14T03:04:43;13.20;78.80
75927;DHT22;64605;48.296;16.416;2023-05-14T03:07:08;13.30;79.00
75927;DHT22;64605;48.296;16.416;2023-05-14T03:09:34;13.20;78.80
75927;DHT22;64605;48.296;16.416;2023-05-14T03:12:00;13.20;78.80
75927;DHT22;64605;48.296;16.416;2023-05-14T03:14:25;13.20;78.30
75927;DHT22;64605;48.296;16.416;2023-05-14T03:16:51;13.10;78.60
75927;DHT22;64605;48.296;16.416;2023-05-14T03:19:16;13.20;78.60
75927;DHT22;64605;48.296;16.416;2023-05-14T03:21:42;13.10;78.70
75927;DHT22;64605;48.296;16.416;2023-05-14T03:24:08;13.10;78.50
75927;DHT22;64605;48.296;16.416;2023-05-14T03:26:33;13.10;79.00
75927;DHT22;64605;48.296;16.416;2023-05-14T03:28:59;13.10;78.80
75927;DHT22;64605;48.296;16.416;2023-05-14T03:31:25;13.20;79.20
75927;DHT22;64605;48.296;16.416;2023-05-14T03:33:51;13.20;79.30
75927;DHT22;64605;48.296;16.416;2023-05-14T03:36:16;13.30;79.00
75927;DHT22;64605;48.296;16.416;2023-05-14T03:38:42;13.40;79.00
75927;DHT22;64605;48.296;16.416;2023-05-14T03:41:08;13.40;78.80
75927;DHT22;64605;48.296;16.416;2023-05-14T03:43:33;13.40;78.70
75927;DHT22;64605;48.296;16.416;2023-05-14T03:45:59;13.40;78.60
75927;DHT22;64605;48.296;16.416;2023-05-14T03:48:25;13.50;77.80
75927;DHT22;64605;48.296;16.416;2023-05-14T03:50:50;13.50;77.80
75927;DHT22;64605;48.296;16.416;2023-05-14T03:53:16;13.60;77.30
75927;DHT22;64605;48.296;16.416;2023-05-14T03:55:42;13.60;77.10
75927;DHT22;64605;48.296;16.416;2023-05-14T03:58:07;13.60;76.30
75927;DHT22;64605;48.296;16.416;2023-05-14T04:00:40;13.70;76.10
75927;DHT22;64605;48.296;16.416;2023-05-14T04:03:06;13.70;75.60
75927;DHT22;64605;48.296;16.416;2023-05-14T04:05:32;13.70;75.40
75927;DHT22;64605;48.296;16.416;2023-05-14T04:07:57;13.70;75.60
75927;DHT22;64605;48.296;16.416;2023-05-14T04:10:23;13.80;75.40
75927;DHT22;64605;48.296;16.416;2023-05-14T04:12:49;13.80;75.80
75927;DHT22;64605;48.296;16.416;2023-05-14T04:15:14;13.80;76.00
75927;DHT22;64605;48.296;16.416;2023-05-14T04:17:40;13.80;76.00
75927;DHT22;64605;48.296;16.416;2023-05-14T04:20:06;13.90;76.00
75927;DHT22;64605;48.296;16.416;2023-05-14T04:22:32;13.90;75.50
75927;DHT22;64605;48.296;16.416;2023-05-14T04:24:58;14.00;75.20
75927;DHT22;64605;48.296;16.416;2023-05-14T04:27:23;14.00;75.30
75927;DHT22;64605;48.296;16.416;2023-05-14T04:29:49;14.00;75.40
75927;DHT22;64605;48.296;16.416;2023-05-14T04:32:15;14.10;75.40
75927;DHT22;64605;48.296;16.416;2023-05-14T04:34:42;14.10;75.10
75927;DHT22;64605;48.296;16.416;2023-05-14T04:37:08;14.20;75.10
75927;DHT22;64605;48.296;16.416;2023-05-14T04:39:35;14.20;74.80
75927;DHT22;64605;48.296;16.416;2023-05-14T04:42:00;14.30;75.00
75927;DHT22;64605;48.296;16.416;2023-05-14T04:44:26;14.40;74.40
75927;DHT22;64605;48.296;16.416;2023-05-14T04:46:52;14.50;73.60
75927;DHT22;64605;48.296;16.416;2023-05-14T04:49:17;14.60;72.50
75927;DHT22;64605;48.296;16.416;2023-05-14T04:51:43;14.60;72.40
75927;DHT22;64605;48.296;16.416;2023-05-14T04:54:08;14.70;71.60
75927;DHT22;64605;48.296;16.416;2023-05-14T04:56:34;14.70;71.20
75927;DHT22;64605;48.296;16.416;2023-05-14T04:59:00;14.70;71.10
75927;DHT22;64605;48.296;16.416;2023-05-14T05:01:25;14.70;71.70
75927;DHT22;64605;48.296;16.416;2023-05-14T05:03:51;14.70;71.40
75927;DHT22;64605;48.296;16.416;2023-05-14T05:06:17;14.80;71.60
75927;DHT22;64605;48.296;16.416;2023-05-14T05:08:42;14.80;71.40
75927;DHT22;64605;48.296;16.416;2023-05-14T05:11:08;14.80;71.20
75927;DHT22;64605;48.296;16.416;2023-05-14T05:13:33;14.80;70.90
75927;DHT22;64605;48.296;16.416;2023-05-14T05:15:59;14.80;71.30
75927;DHT22;64605;48.296;16.416;2023-05-14T05:18:25;14.90;69.80
75927;DHT22;64605;48.296;16.416;2023-05-14T05:20:50;14.80;70.00
75927;DHT22;64605;48.296;16.416;2023-05-14T05:23:16;14.80;69.60
75927;DHT22;64605;48.296;16.416;2023-05-14T05:25:42;14.80;70.30
75927;DHT22;64605;48.296;16.416;2023-05-14T05:28:07;14.70;70.70
75927;DHT22;64605;48.296;16.416;2023-05-14T05:30:33;14.70;70.60
75927;DHT22;64605;48.296;16.416;2023-05-14T05:32:59;14.70;71.30
75927;DHT22;64605;48.296;16.416;2023-05-14T05:35:24;14.70;71.60
75927;DHT22;64605;48.296;16.416;2023-05-14T05:37:50;14.70;71.20
75927;DHT22;64605;48.296;16.416;2023-05-14T05:40:15;14.70;70.90
75927;DHT22;64605;48.296;16.416;2023-05-14T05:42:41;14.70;71.10
75927;DHT22;64605;48.296;16.416;2023-05-14T05:45:07;14.70;71.10
75927;DHT22;64605;48.296;16.416;2023-05-14T05:47:33;14.70;70.80
75927;DHT22;64605;48.296;16.416;2023-05-14T05:49:59;14.70;71.00
75927;DHT22;64605;48.296;16.416;2023-05-14T05:52:26;14.70;71.80
75927;DHT22;64605;48.296;16.416;2023-05-14T05:54:51;14.70;71.60
75927;DHT22;64605;48.296;16.416;2023-05-14T05:57:17;14.80;71.30
75927;DHT22;64605;48.296;16.416;2023-05-14T05:59:42;14.80;71.50
75927;DHT22;64605;48.296;16.416;2023-05-14T06:02:08;14.80;72.00
75927;DHT22;64605;48.296;16.416;2023-05-14T06:04:34;14.80;72.20
75927;DHT22;64605;48.296;16.416;2023-05-14T06:07:00;14.80;72.50
75927;DHT22;64605;48.296;16.416;2023-05-14T06:09:26;14.90;72.40
75927;DHT22;64605;48.296;16.416;2023-05-14T06:11:51;14.90;72.20
75927;DHT22;64605;48.296;16.416;2023-05-14T06:14:17;15.00;72.30
75927;DHT22;64605;48.296;16.416;2023-05-14T06:16:42;15.00;72.30
75927;DHT22;64605;48.296;16.416;2023-05-14T06:19:08;15.10;71.30
75927;DHT22;64605;48.296;16.416;2023-05-14T06:21:34;15.20;71.30
75927;DHT22;64605;48.296;16.416;2023-05-14T06:24:00;15.30;71.50
75927;DHT22;64605;48.296;16.416;2023-05-14T06:26:25;15.30;70.20
75927;DHT22;64605;48.296;16.416;2023-05-14T06:28:51;15.30;69.90
75927;DHT22;64605;48.296;16.416;2023-05-14T06:31:17;15.30;69.50
75927;DHT22;64605;48.296;16.416;2023-05-14T06:33:43;15.20;70.20
75927;DHT22;64605;48.296;16.416;2023-05-14T06:36:10;15.30;70.60
75927;DHT22;64605;48.296;16.416;2023-05-14T06:38:36;15.30;69.90
75927;DHT22;64605;48.296;16.416;2023-05-14T06:41:02;15.30;70.50
75927;DHT22;64605;48.296;16.416;2023-05-14T06:43:27;15.30;70.50
75927;DHT22;64605;48.296;16.416;2023-05-14T06:45:53;15.30;71.00
75927;DHT22;64605;48.296;16.416;2023-05-14T06:48:19;15.40;71.40
75927;DHT22;64605;48.296;16.416;2023-05-14T06:50:46;15.30;70.00
75927;DHT22;64605;48.296;16.416;2023-05-14T06:53:11;15.30;70.90
75927;DHT22;64605;48.296;16.416;2023-05-14T06:55:37;15.20;71.00
75927;DHT22;64605;48.296;16.416;2023-05-14T06:58:05;15.10;71.00
75927;DHT22;64605;48.296;16.416;2023-05-14T07:00:31;15.00;71.80
75927;DHT22;64605;48.296;16.416;2023-05-14T07:02:56;14.90;72.80
75927;DHT22;64605;48.296;16.416;2023-05-14T07:05:23;14.90;73.40
75927;DHT22;64605;48.296;16.416;2023-05-14T07:07:49;14.80;73.90
75927;DHT22;64605;48.296;16.416;2023-05-14T07:10:14;14.70;74.80
75927;DHT22;64605;48.296;16.416;2023-05-14T07:12:40;14.70;75.20
75927;DHT22;64605;48.296;16.416;2023-05-14T07:15:06;14.70;75.10
75927;DHT22;64605;48.296;16.416;2023-05-14T07:17:32;14.60;74.80
75927;DHT22;64605;48.296;16.416;2023-05-14T07:19:57;14.50;77.40
75927;DHT22;64605;48.296;16.416;2023-05-14T07:22:23;14.50;77.40
75927;DHT22;64605;48.296;16.416;2023-05-14T07:24:49;14.40;76.90
75927;DHT22;64605;48.296;16.416;2023-05-14T07:27:14;14.40;77.50
75927;DHT22;64605;48.296;16.416;2023-05-14T07:29:41;14.40;77.40
75927;DHT22;64605;48.296;16.416;2023-05-14T07:32:07;14.40;77.70
75927;DHT22;64605;48.296;16.416;2023-05-14T07:34:33;14.30;77.40
75927;DHT22;64605;48.296;16.416;2023-05-14T07:36:58;14.20;77.70
75927;DHT22;64605;48.296;16.416;2023-05-14T07:39:24;14.30;79.20
75927;DHT22;64605;48.296;16.416;2023-05-14T07:41:50;14.40;79.70
75927;DHT22;64605;48.296;16.416;2023-05-14T07:44:16;14.50;79.30
75927;DHT22;64605;48.296;16.416;2023-05-14T07:46:41;14.60;79.10
75927;DHT22;64605;48.296;16.416;2023-05-14T07:49:07;14.60;78.90
75927;DHT22;64605;48.296;16.416;2023-05-14T07:51:33;14.60;78.80
75927;DHT22;64605;48.296;16.416;2023-05-14T07:53:58;14.60;78.70
75927;DHT22;64605;48.296;16.416;2023-05-14T07:56:24;14.60;77.80
75927;DHT22;64605;48.296;16.416;2023-05-14T07:58:50;14.50;78.40
75927;DHT22;64605;48.296;16.416;2023-05-14T08:01:16;14.50;78.60
75927;DHT22;64605;48.296;16.416;2023-05-14T08:03:42;14.40;78.90
75927;DHT22;64605;48.296;16.416;2023-05-14T08:06:07;14.40;79.00
75927;DHT22;64605;48.296;16.416;2023-05-14T08:08:33;14.30;79.90
75927;DHT22;64605;48.296;16.416;2023-05-14T08:10:59;14.30;80.80
75927;DHT22;64605;48.296;16.416;2023-05-14T08:13:25;14.20;83.50
75927;DHT22;64605;48.296;16.416;2023-05-14T08:15:50;14.10;85.30
75927;DHT22;64605;48.296;16.416;2023-05-14T08:18:16;14.10;84.70
75927;DHT22;64605;48.296;16.416;2023-05-14T08:20:42;14.00;83.70
75927;DHT22;64605;48.296;16.416;2023-05-14T08:23:08;14.00;85.90
75927;DHT22;64605;48.296;16.416;2023-05-14T08:25:33;14.00;84.90
75927;DHT22;64605;48.296;16.416;2023-05-14T08:27:59;14.00;83.60
75927;DHT22;64605;48.296;16.416;2023-05-14T08:30:26;14.10;85.70
75927;DHT22;64605;48.296;16.416;2023-05-14T08:32:51;14.10;85.30
75927;DHT22;64605;48.296;16.416;2023-05-14T08:35:17;14.20;85.50
75927;DHT22;64605;48.296;16.416;2023-05-14T08:37:43;14.30;84.60
75927;DHT22;64605;48.296;16.416;2023-05-14T08:40:09;14.30;85.40
75927;DHT22;64605;48.296;16.416;2023-05-14T08:42:37;14.30;84.80
75927;DHT22;64605;48.296;16.416;2023-05-14T08:45:12;14.30;83.10
75927;DHT22;64605;48.296;16.416;2023-05-14T08:47:41;14.30;84.80
75927;DHT22;64605;48.296;16.416;2023-05-14T08:50:08;14.20;82.10
75927;DHT22;64605;48.296;16.416;2023-05-14T08:52:34;14.10;83.40
75927;DHT22;64605;48.296;16.416;2023-05-14T08:55:03;14.10;85.20
75927;DHT22;64605;48.296;16.416;2023-05-14T08:57:31;14.10;84.50
75927;DHT22;64605;48.296;16.416;2023-05-14T08:59:56;14.10;86.40
75927;DHT22;64605;48.296;16.416;2023-05-14T09:02:28;14.20;85.90
75927;DHT22;64605;48.296;16.416;2023-05-14T09:04:59;14.20;87.30
75927;DHT22;64605;48.296;16.416;2023-05-14T09:07:25;14.10;86.40
75927;DHT22;64605;48.296;16.416;2023-05-14T09:09:51;14.10;86.20
75927;DHT22;64605;48.296;16.416;2023-05-14T09:12:18;14.10;87.50
75927;DHT22;64605;48.296;16.416;2023-05-14T09:14:44;14.10;87.30
75927;DHT22;64605;48.296;16.416;2023-05-14T09:17:10;14.10;87.40
75927;DHT22;64605;48.296;16.416;2023-05-14T09:19:40;14.00;87.20
75927;DHT22;64605;48.296;16.416;2023-05-14T09:22:13;13.90;88.60
75927;DHT22;64605;48.296;16.416;2023-05-14T09:24:40;13.90;88.00
75927;DHT22;64605;48.296;16.416;2023-05-14T09:27:06;13.80;89.80
75927;DHT22;64605;48.296;16.416;2023-05-14T09:29:33;13.80;90.80
75927;DHT22;64605;48.296;16.416;2023-05-14T09:31:59;13.80;90.60
75927;DHT22;64605;48.296;16.416;2023-05-14T09:34:33;13.90;91.00
75927;DHT22;64605;48.296;16.416;2023-05-14T09:37:01;13.90;90.80
75927;DHT22;64605;48.296;16.416;2023-05-14T09:39:28;13.90;91.60
75927;DHT22;64605;48.296;16.416;2023-05-14T09:41:54;13.90;92.20
75927;DHT22;64605;48.296;16.416;2023-05-14T09:44:20;13.90;92.10
75927;DHT22;64605;48.296;16.416;2023-05-14T09:46:46;13.80;92.00
75927;DHT22;64605;48.296;16.416;2023-05-14T09:49:13;13.90;92.70
75927;DHT22;64605;48.296;16.416;2023-05-14T09:51:38;13.90;93.10
75927;DHT22;64605;48.296;16.416;2023-05-14T09:54:05;13.90;92.30
75927;DHT22;64605;48.296;16.416;2023-05-14T09:56:34;13.80;92.50
75927;DHT22;64605;48.296;16.416;2023-05-14T09:59:01;13.80;92.80
75927;DHT22;64605;48.296;16.416;2023-05-14T10:01:31;13.90;93.10
75927;DHT22;64605;48.296;16.416;2023-05-14T10:04:05;14.00;93.30
75927;DHT22;64605;48.296;16.416;2023-05-14T10:06:35;14.00;92.90
75927;DHT22;64605;48.296;16.416;2023-05-14T10:09:05;13.90;92.60
75927;DHT22;64605;48.296;16.416;2023-05-14T10:11:37;14.00;92.80
75927;DHT22;64605;48.296;16.416;2023-05-14T10:16:36;14.10;92.40
75927;DHT22;64605;48.296;16.416;2023-05-14T10:19:14;14.00;92.50
75927;DHT22;64605;48.296;16.416;2023-05-14T10:21:44;14.00;92.20
75927;DHT22;64605;48.296;16.416;2023-05-14T10:24:10;13.90;91.80
75927;DHT22;64605;48.296;16.416;2023-05-14T10:26:38;13.80;92.70
75927;DHT22;64605;48.296;16.416;2023-05-14T10:29:11;13.80;92.90
75927;DHT22;64605;48.296;16.416;2023-05-14T10:31:51;13.90;92.80
75927;DHT22;64605;48.296;16.416;2023-05-14T10:34:35;13.80;92.30
75927;DHT22;64605;48.296;16.416;2023-05-14T10:39:45;14.00;93.40
75927;DHT22;64605;48.296;16.416;2023-05-14T10:42:21;14.10;93.50
75927;DHT22;64605;48.296;16.416;2023-05-14T10:45:06;14.20;93.30
75927;DHT22;64605;48.296;16.416;2023-05-14T10:47:40;14.30;92.80
75927;DHT22;64605;48.296;16.416;2023-05-14T10:50:10;14.30;92.20
75927;DHT22;64605;48.296;16.416;2023-05-14T10:52:36;14.40;92.80
75927;DHT22;64605;48.296;16.416;2023-05-14T10:55:03;14.50;92.40
75927;DHT22;64605;48.296;16.416;2023-05-14T10:57:38;14.50;91.70
75927;DHT22;64605;48.296;16.416;2023-05-14T11:00:05;14.40;91.60
75927;DHT22;64605;48.296;16.416;2023-05-14T11:02:39;14.40;91.90
75927;DHT22;64605;48.296;16.416;2023-05-14T11:07:37;14.50;91.50
75927;DHT22;64605;48.296;16.416;2023-05-14T11:10:08;14.50;91.90
75927;DHT22;64605;48.296;16.416;2023-05-14T11:12:41;14.50;92.00
75927;DHT22;64605;48.296;16.416;2023-05-14T11:15:09;14.60;91.80
75927;DHT22;64605;48.296;16.416;2023-05-14T11:17:36;14.50;91.20
75927;DHT22;64605;48.296;16.416;2023-05-14T11:20:03;14.60;91.10
75927;DHT22;64605;48.296;16.416;2023-05-14T11:22:30;14.60;90.80
75927;DHT22;64605;48.296;16.416;2023-05-14T11:24:55;14.50;91.50
75927;DHT22;64605;48.296;16.416;2023-05-14T11:27:22;14.60;91.00
75927;DHT22;64605;48.296;16.416;2023-05-14T11:29:49;14.50;91.30
75927;DHT22;64605;48.296;16.416;2023-05-14T11:32:16;14.50;91.20
75927;DHT22;64605;48.296;16.416;2023-05-14T11:34:43;14.50;91.60
75927;DHT22;64605;48.296;16.416;2023-05-14T11:37:13;14.70;92.20
75927;DHT22;64605;48.296;16.416;2023-05-14T11:39:46;14.80;91.50
75927;DHT22;64605;48.296;16.416;2023-05-14T11:42:12;14.80;90.90
75927;DHT22;64605;48.296;16.416;2023-05-14T11:44:39;14.70;90.70
75927;DHT22;64605;48.296;16.416;2023-05-14T11:47:05;14.60;90.30
75927;DHT22;64605;48.296;16.416;2023-05-14T11:49:31;14.70;90.70
75927;DHT22;64605;48.296;16.416;2023-05-14T11:52:01;14.60;90.50
75927;DHT22;64605;48.296;16.416;2023-05-14T11:54:28;14.80;91.40
75927;DHT22;64605;48.296;16.416;2023-05-14T11:56:58;14.90;90.60
75927;DHT22;64605;48.296;16.416;2023-05-14T11:59:27;15.00;90.90
75927;DHT22;64605;48.296;16.416;2023-05-14T12:01:56;15.20;91.00
75927;DHT22;64605;48.296;16.416;2023-05-14T12:04:22;15.30;90.50
75927;DHT22;64605;48.296;16.416;2023-05-14T12:06:49;15.30;89.00
75927;DHT22;64605;48.296;16.416;2023-05-14T12:09:21;15.30;90.00
75927;DHT22;64605;48.296;16.416;2023-05-14T12:11:49;15.50;90.90
75927;DHT22;64605;48.296;16.416;2023-05-14T12:14:20;15.50;90.40
75927;DHT22;64605;48.296;16.416;2023-05-14T12:16:47;15.70;89.70
75927;DHT22;64605;48.296;16.416;2023-05-14T12:19:14;15.60;86.20
75927;DHT22;64605;48.296;16.416;2023-05-14T12:21:43;15.50;87.20
75927;DHT22;64605;48.296;16.416;2023-05-14T12:24:14;15.50;87.80
75927;DHT22;64605;48.296;16.416;2023-05-14T12:26:43;15.60;88.30
75927;DHT22;64605;48.296;16.416;2023-05-14T12:29:12;15.60;85.80
75927;DHT22;64605;48.296;16.416;2023-05-14T12:31:38;15.60;87.80
75927;DHT22;64605;48.296;16.416;2023-05-14T12:34:09;15.70;87.60
75927;DHT22;64605;48.296;16.416;2023-05-14T12:36:35;15.80;89.60
75927;DHT22;64605;48.296;16.416;2023-05-14T12:39:02;15.90;89.10
75927;DHT22;64605;48.296;16.416;2023-05-14T12:41:29;15.70;86.70
75927;DHT22;64605;48.296;16.416;2023-05-14T12:43:55;15.70;88.00
75927;DHT22;64605;48.296;16.416;2023-05-14T12:46:22;15.70;89.10
75927;DHT22;64605;48.296;16.416;2023-05-14T12:48:47;15.90;89.20
75927;DHT22;64605;48.296;16.416;2023-05-14T12:51:13;15.90;87.70
75927;DHT22;64605;48.296;16.416;2023-05-14T12:53:39;15.90;87.50
75927;DHT22;64605;48.296;16.416;2023-05-14T12:56:05;15.70;85.90
75927;DHT22;64605;48.296;16.416;2023-05-14T12:58:31;15.70;88.00
75927;DHT22;64605;48.296;16.416;2023-05-14T13:00:57;15.70;86.00
75927;DHT22;64605;48.296;16.416;2023-05-14T13:03:23;15.70;86.20
75927;DHT22;64605;48.296;16.416;2023-05-14T13:05:50;15.70;87.20
75927;DHT22;64605;48.296;16.416;2023-05-14T13:08:16;15.90;89.10
75927;DHT22;64605;48.296;16.416;2023-05-14T13:10:44;15.90;88.60
75927;DHT22;64605;48.296;16.416;2023-05-14T13:13:10;15.90;88.60
75927;DHT22;64605;48.296;16.416;2023-05-14T13:15:36;15.90;89.00
75927;DHT22;64605;48.296;16.416;2023-05-14T13:18:03;15.80;86.30
75927;DHT22;64605;48.296;16.416;2023-05-14T13:20:29;15.70;85.70
75927;DHT22;64605;48.296;16.416;2023-05-14T13:22:56;15.50;83.90
75927;DHT22;64605;48.296;16.416;2023-05-14T13:25:22;15.40;84.30
75927;DHT22;64605;48.296;16.416;2023-05-14T13:27:47;15.30;87.10
75927;DHT22;64605;48.296;16.416;2023-05-14T13:30:16;15.40;87.40
75927;DHT22;64605;48.296;16.416;2023-05-14T13:32:42;15.40;88.00
75927;DHT22;64605;48.296;16.416;2023-05-14T13:35:08;15.40;86.90
75927;DHT22;64605;48.296;16.416;2023-05-14T13:37:34;15.40;87.10
75927;DHT22;64605;48.296;16.416;2023-05-14T13:40:00;15.30;86.80
75927;DHT22;64605;48.296;16.416;2023-05-14T13:42:26;15.40;89.10
75927;DHT22;64605;48.296;16.416;2023-05-14T13:44:51;15.40;87.70
75927;DHT22;64605;48.296;16.416;2023-05-14T13:47:17;15.40;88.00
75927;DHT22;64605;48.296;16.416;2023-05-14T13:49:43;15.50;89.20
75927;DHT22;64605;48.296;16.416;2023-05-14T13:52:08;15.50;88.20
75927;DHT22;64605;48.296;16.416;2023-05-14T13:54:34;15.60;89.70
75927;DHT22;64605;48.296;16.416;2023-05-14T13:57:00;15.60;89.00
75927;DHT22;64605;48.296;16.416;2023-05-14T13:59:25;15.60;89.90
75927;DHT22;64605;48.296;16.416;2023-05-14T14:01:52;15.60;88.50
75927;DHT22;64605;48.296;16.416;2023-05-14T14:04:17;15.60;87.50
75927;DHT22;64605;48.296;16.416;2023-05-14T14:06:44;15.50;88.00
75927;DHT22;64605;48.296;16.416;2023-05-14T14:09:10;15.50;88.10
75927;DHT22;64605;48.296;16.416;2023-05-14T14:11:38;15.40;87.60
75927;DHT22;64605;48.296;16.416;2023-05-14T14:14:03;15.40;87.30
75927;DHT22;64605;48.296;16.416;2023-05-14T14:16:29;15.30;86.10
75927;DHT22;64605;48.296;16.416;2023-05-14T14:18:54;15.30;87.70
75927;DHT22;64605;48.296;16.416;2023-05-14T14:21:21;15.20;87.00
75927;DHT22;64605;48.296;16.416;2023-05-14T14:23:47;15.30;88.50
75927;DHT22;64605;48.296;16.416;2023-05-14T14:26:13;15.30;87.50
75927;DHT22;64605;48.296;16.416;2023-05-14T14:28:39;15.20;86.30
75927;DHT22;64605;48.296;16.416;2023-05-14T14:31:05;15.20;87.50
75927;DHT22;64605;48.296;16.416;2023-05-14T14:33:31;15.10;87.40
75927;DHT22;64605;48.296;16.416;2023-05-14T14:35:56;15.10;87.90
75927;DHT22;64605;48.296;16.416;2023-05-14T14:38:23;15.10;86.90
75927;DHT22;64605;48.296;16.416;2023-05-14T14:40:49;15.00;87.50
75927;DHT22;64605;48.296;16.416;2023-05-14T14:43:14;15.00;88.40
75927;DHT22;64605;48.296;16.416;2023-05-14T14:45:41;15.10;88.10
75927;DHT22;64605;48.296;16.416;2023-05-14T14:48:31;15.00;86.00
75927;DHT22;64605;48.296;16.416;2023-05-14T14:51:06;14.90;86.70
75927;DHT22;64605;48.296;16.416;2023-05-14T14:53:33;14.90;87.60
75927;DHT22;64605;48.296;16.416;2023-05-14T14:56:00;14.90;88.90
75927;DHT22;64605;48.296;16.416;2023-05-14T14:58:26;14.90;88.90
75927;DHT22;64605;48.296;16.416;2023-05-14T15:00:54;14.90;88.20
75927;DHT22;64605;48.296;16.416;2023-05-14T15:03:20;15.00;88.50
75927;DHT22;64605;48.296;16.416;2023-05-14T15:05:47;15.00;89.20
75927;DHT22;64605;48.296;16.416;2023-05-14T15:08:13;15.00;87.90
75927;DHT22;64605;48.296;16.416;2023-05-14T15:10:38;15.10;88.50
75927;DHT22;64605;48.296;16.416;2023-05-14T15:13:06;15.10;89.00
75927;DHT22;64605;48.296;16.416;2023-05-14T15:15:32;15.10;88.50
75927;DHT22;64605;48.296;16.416;2023-05-14T15:17:58;15.20;89.50
75927;DHT22;64605;48.296;16.416;2023-05-14T15:20:27;15.20;89.40
75927;DHT22;64605;48.296;16.416;2023-05-14T15:22:53;15.10;88.50
75927;DHT22;64605;48.296;16.416;2023-05-14T15:25:19;15.10;90.10